createdAt,value
2018-08-19T00:01:06.094Z,0.00
2018-08-19T00:02:06.088Z,0.00
2018-08-19T00:03:59.017Z,0.00
2018-08-19T00:04:59.030Z,0.00
2018-08-19T00:06:51.978Z,0.00
2018-08-19T00:07:51.976Z,0.00
2018-08-19T00:09:44.900Z,0.00
2018-08-19T00:10:44.914Z,0.00
2018-08-19T00:12:37.863Z,0.00
2018-08-19T00:13:37.856Z,0.00
2018-08-19T00:15:30.780Z,0.00
2018-08-19T00:16:30.795Z,0.00
2018-08-19T00:18:24.152Z,0.00
2018-08-19T00:19:23.944Z,0.00
2018-08-19T00:21:16.699Z,0.00
2018-08-19T00:22:16.693Z,0.00
2018-08-19T00:24:09.621Z,0.00
2018-08-19T00:25:09.639Z,0.00
2018-08-19T00:27:02.584Z,0.00
2018-08-19T00:28:02.576Z,0.00
2018-08-19T00:29:55.504Z,0.00
2018-08-19T00:30:55.519Z,0.00
2018-08-19T00:32:48.470Z,0.00
2018-08-19T00:33:48.460Z,0.00
2018-08-19T00:35:41.388Z,0.00
2018-08-19T00:36:41.404Z,0.00
2018-08-19T00:38:34.351Z,0.00
2018-08-19T00:39:34.342Z,0.00
2018-08-19T00:41:27.291Z,0.00
2018-08-19T00:42:27.285Z,0.00
2018-08-19T00:44:20.214Z,0.00
2018-08-19T00:45:20.229Z,0.00
2018-08-19T00:47:13.178Z,0.00
2018-08-19T00:48:13.173Z,0.00
2018-08-19T00:50:06.089Z,0.00
2018-08-19T00:51:06.113Z,0.00
2018-08-19T00:52:59.061Z,0.00
2018-08-19T00:53:59.055Z,0.00
2018-08-19T00:55:51.984Z,0.00
2018-08-19T00:56:51.996Z,0.00
2018-08-19T00:58:44.942Z,0.00
2018-08-19T00:59:44.937Z,0.00
2018-08-19T01:01:37.870Z,0.00
2018-08-19T01:02:37.879Z,0.00
2018-08-19T01:04:30.827Z,0.00
2018-08-19T01:05:30.822Z,0.00
2018-08-19T01:07:23.769Z,0.00
2018-08-19T01:08:23.762Z,0.00
2018-08-19T01:10:16.689Z,0.00
2018-08-19T01:11:16.706Z,0.00
2018-08-19T01:13:09.652Z,0.00
2018-08-19T01:14:09.643Z,0.00
2018-08-19T01:16:02.572Z,0.00
2018-08-19T01:17:02.584Z,0.00
2018-08-19T01:18:55.531Z,0.00
2018-08-19T01:19:55.525Z,0.00
2018-08-19T01:21:48.449Z,0.00
2018-08-19T01:22:48.497Z,0.00
2018-08-19T01:24:41.418Z,0.00
2018-08-19T01:25:41.407Z,0.00
2018-08-19T01:27:34.361Z,0.00
2018-08-19T01:28:34.355Z,0.00
2018-08-19T01:30:27.282Z,0.00
2018-08-19T01:31:27.286Z,0.00
2018-08-19T01:33:20.236Z,0.00
2018-08-19T01:34:20.231Z,0.00
2018-08-19T01:36:13.164Z,0.00
2018-08-19T01:37:13.178Z,0.00
2018-08-19T01:39:06.124Z,0.00
2018-08-19T01:40:06.116Z,0.00
2018-08-19T01:41:59.053Z,0.00
2018-08-19T01:42:59.053Z,0.00
2018-08-19T01:44:52.006Z,0.00
2018-08-19T01:45:52.002Z,0.00
2018-08-19T01:47:44.950Z,0.00
2018-08-19T01:48:44.944Z,0.00
2018-08-19T01:50:37.874Z,0.00
2018-08-19T01:51:37.893Z,0.00
2018-08-19T01:53:30.837Z,0.00
2018-08-19T01:54:30.830Z,0.00
2018-08-19T02:24:11.587Z,0.00
2018-08-19T02:25:11.573Z,0.00
2018-08-19T02:27:04.492Z,0.00
2018-08-19T02:28:04.496Z,0.00
2018-08-19T02:29:57.433Z,0.00
2018-08-19T02:30:57.424Z,0.00
2018-08-19T02:32:50.343Z,0.00
2018-08-19T02:33:50.357Z,0.00
2018-08-19T02:35:43.787Z,0.00
2018-08-19T02:36:43.785Z,0.00
2018-08-19T02:38:36.733Z,0.00
2018-08-19T02:39:36.721Z,0.00
2018-08-19T02:41:29.648Z,0.00
2018-08-19T02:42:29.660Z,0.00
2018-08-19T02:44:22.593Z,0.00
2018-08-19T02:45:22.588Z,0.00
2018-08-19T02:47:15.510Z,0.00
2018-08-19T02:48:15.527Z,0.00
2018-08-19T02:50:08.473Z,0.00
2018-08-19T02:51:08.463Z,0.00
2018-08-19T02:53:01.395Z,0.00
2018-08-19T02:54:01.404Z,0.00
2018-08-19T02:55:54.360Z,0.00
2018-08-19T02:56:54.344Z,0.00
2018-08-19T02:58:47.303Z,0.00
2018-08-19T02:59:47.282Z,0.00
2018-08-19T03:01:40.210Z,0.00
2018-08-19T03:02:40.224Z,0.00
2018-08-19T03:04:34.160Z,0.00
2018-08-19T03:05:34.157Z,0.00
2018-08-19T03:07:27.085Z,0.00
2018-08-19T03:08:27.097Z,0.00
2018-08-19T03:10:20.039Z,0.00
2018-08-19T03:11:20.037Z,0.00
2018-08-19T03:13:12.963Z,0.00
2018-08-19T03:14:12.977Z,0.00
2018-08-19T03:16:05.924Z,0.00
2018-08-19T03:17:05.920Z,0.00
2018-08-19T03:18:58.844Z,0.00
2018-08-19T03:19:58.854Z,0.00
2018-08-19T03:21:51.800Z,0.00
2018-08-19T03:22:51.797Z,0.00
2018-08-19T03:24:44.745Z,0.00
2018-08-19T03:25:44.738Z,0.00
2018-08-19T03:27:37.670Z,0.00
2018-08-19T03:28:37.679Z,0.00
2018-08-19T03:30:30.627Z,0.00
2018-08-19T03:31:30.623Z,0.00
2018-08-19T03:33:23.544Z,0.00
2018-08-19T03:34:23.562Z,0.00
2018-08-19T03:36:16.512Z,0.00
2018-08-19T03:37:16.505Z,0.00
2018-08-19T03:39:09.431Z,0.00
2018-08-19T03:40:09.440Z,0.00
2018-08-19T03:42:02.389Z,0.00
2018-08-19T03:43:02.383Z,0.00
2018-08-19T03:44:55.333Z,0.00
2018-08-19T03:45:55.320Z,0.00
2018-08-19T03:47:48.252Z,0.00
2018-08-19T03:48:48.268Z,0.00
2018-08-19T03:50:41.211Z,0.00
2018-08-19T03:51:41.206Z,0.00
2018-08-19T03:53:34.132Z,0.00
2018-08-19T03:54:34.147Z,0.00
2018-08-19T03:56:27.092Z,0.00
2018-08-19T03:57:27.089Z,0.00
2018-08-19T03:59:20.015Z,0.00
2018-08-19T04:00:20.029Z,0.00
2018-08-19T04:02:12.969Z,0.00
2018-08-19T04:03:12.964Z,0.00
2018-08-19T04:05:05.923Z,0.00
2018-08-19T04:06:05.905Z,0.00
2018-08-19T04:07:58.832Z,0.00
2018-08-19T04:08:58.840Z,0.00
2018-08-19T04:10:51.783Z,0.00
2018-08-19T04:11:51.775Z,0.00
2018-08-19T04:13:44.704Z,0.00
2018-08-19T04:14:44.722Z,0.00
2018-08-19T04:16:37.665Z,0.00
2018-08-19T04:17:37.654Z,0.00
2018-08-19T04:19:30.592Z,0.00
2018-08-19T04:20:30.597Z,0.00
2018-08-19T04:22:23.546Z,0.00
2018-08-19T04:23:23.544Z,0.00
2018-08-19T04:25:16.502Z,0.00
2018-08-19T04:26:16.478Z,0.00
2018-08-19T04:28:09.413Z,0.00
2018-08-19T04:29:09.433Z,5.63
2018-08-19T04:31:02.376Z,5.63
2018-08-19T04:32:02.374Z,5.63
2018-08-19T04:33:55.300Z,5.63
2018-08-19T04:34:55.311Z,5.63
2018-08-19T04:36:48.272Z,11.25
2018-08-19T04:37:48.251Z,11.25
2018-08-19T04:39:41.210Z,11.25
2018-08-19T04:40:41.192Z,11.25
2018-08-19T04:42:34.141Z,11.25
2018-08-19T04:43:34.140Z,11.25
2018-08-19T04:45:27.063Z,16.88
2018-08-19T04:46:27.077Z,16.88
2018-08-19T04:48:20.019Z,22.50
2018-08-19T04:49:20.015Z,22.50
2018-08-19T04:51:12.964Z,22.50
2018-08-19T04:52:12.955Z,22.50
2018-08-19T04:54:05.886Z,22.50
2018-08-19T04:55:05.897Z,22.50
2018-08-19T04:56:58.847Z,33.75
2018-08-19T04:57:58.841Z,33.75
2018-08-19T04:59:51.770Z,28.13
2018-08-19T05:00:51.788Z,28.13
2018-08-19T05:02:44.733Z,33.75
2018-08-19T05:03:44.722Z,33.75
2018-08-19T05:05:37.649Z,33.75
2018-08-19T05:06:37.662Z,39.38
2018-08-19T05:08:30.837Z,39.38
2018-08-19T05:09:30.602Z,45.00
2018-08-19T05:11:23.554Z,84.38
2018-08-19T05:12:23.541Z,84.38
2018-08-19T05:14:16.473Z,67.50
2018-08-19T05:15:16.485Z,56.25
2018-08-19T05:17:09.434Z,56.25
2018-08-19T05:18:09.429Z,78.75
2018-08-19T05:20:02.357Z,56.25
2018-08-19T05:21:02.374Z,61.88
2018-08-19T05:22:55.316Z,61.88
2018-08-19T05:23:55.311Z,73.13
2018-08-19T05:25:48.241Z,73.13
2018-08-19T05:26:48.248Z,78.75
2018-08-19T05:28:41.199Z,84.38
2018-08-19T05:29:41.193Z,78.75
2018-08-19T05:31:34.169Z,73.13
2018-08-19T05:32:34.134Z,73.13
2018-08-19T05:34:27.080Z,67.50
2018-08-19T05:35:27.069Z,67.50
2018-08-19T05:37:20.013Z,50.63
2018-08-19T05:38:20.006Z,50.63
2018-08-19T05:40:12.940Z,45.00
2018-08-19T05:41:12.956Z,45.00
2018-08-19T05:43:05.911Z,45.00
2018-08-19T05:44:05.902Z,45.00
2018-08-19T05:45:58.832Z,45.00
2018-08-19T05:46:58.868Z,45.00
2018-08-19T05:48:51.791Z,45.00
2018-08-19T05:49:51.786Z,45.00
2018-08-19T05:51:44.717Z,45.00
2018-08-19T05:52:44.728Z,39.38
2018-08-19T05:54:37.681Z,39.38
2018-08-19T05:55:37.688Z,45.00
2018-08-19T05:57:30.616Z,45.00
2018-08-19T05:58:30.613Z,45.00
2018-08-19T06:00:24.040Z,45.00
2018-08-19T06:01:24.050Z,45.00
2018-08-19T06:03:16.999Z,45.00
2018-08-19T06:04:17.098Z,45.00
2018-08-19T06:06:09.916Z,45.00
2018-08-19T06:07:09.929Z,45.00
2018-08-19T06:09:02.878Z,50.63
2018-08-19T06:10:02.878Z,50.63
2018-08-19T06:11:55.808Z,50.63
2018-08-19T06:12:55.827Z,50.63
2018-08-19T06:14:48.779Z,56.25
2018-08-19T06:15:48.774Z,61.88
2018-08-19T06:17:41.719Z,67.50
2018-08-19T06:18:41.717Z,67.50
2018-08-19T06:20:34.642Z,73.13
2018-08-19T06:21:34.655Z,73.13
2018-08-19T06:23:27.609Z,78.75
2018-08-19T06:24:27.604Z,84.38
2018-08-19T06:26:20.528Z,90.00
2018-08-19T06:27:20.545Z,90.00
2018-08-19T06:29:13.491Z,84.38
2018-08-19T06:30:13.489Z,90.00
2018-08-19T06:32:06.419Z,90.00
2018-08-19T06:33:06.436Z,90.00
2018-08-19T06:34:59.471Z,101.25
2018-08-19T06:35:59.380Z,101.25
2018-08-19T06:37:52.333Z,118.13
2018-08-19T06:38:52.331Z,123.75
2018-08-19T06:40:45.252Z,118.13
2018-08-19T06:41:45.268Z,112.50
2018-08-19T06:43:38.224Z,112.50
2018-08-19T06:44:38.220Z,112.50
2018-08-19T06:46:31.148Z,112.50
2018-08-19T06:47:31.163Z,112.50
2018-08-19T06:49:24.122Z,118.13
2018-08-19T06:50:24.116Z,112.50
2018-08-19T06:52:17.064Z,118.13
2018-08-19T06:53:17.057Z,112.50
2018-08-19T06:55:10.004Z,123.75
2018-08-19T06:56:10.010Z,135.00
2018-08-19T06:58:02.957Z,163.13
2018-08-19T06:59:02.947Z,185.63
2018-08-19T07:00:55.899Z,180.00
2018-08-19T07:01:55.898Z,230.63
2018-08-19T07:03:48.951Z,163.13
2018-08-19T07:04:48.849Z,433.13
2018-08-19T07:06:41.775Z,388.13
2018-08-19T07:07:41.797Z,421.88
2018-08-19T07:09:34.752Z,405.00
2018-08-19T07:10:34.754Z,410.63
2018-08-19T07:12:27.711Z,354.38
2018-08-19T07:13:27.697Z,275.63
2018-08-19T07:15:20.653Z,292.50
2018-08-19T07:16:20.648Z,309.38
2018-08-19T07:18:13.588Z,180.00
2018-08-19T07:19:13.598Z,320.63
2018-08-19T07:21:06.555Z,343.13
2018-08-19T07:22:06.554Z,337.50
2018-08-19T07:23:59.500Z,331.88
2018-08-19T07:24:59.507Z,331.88
2018-08-19T07:26:52.433Z,326.25
2018-08-19T07:27:52.453Z,320.63
2018-08-19T07:29:45.485Z,315.00
2018-08-19T07:30:45.410Z,309.38
2018-08-19T07:32:38.351Z,309.38
2018-08-19T07:33:38.364Z,303.75
2018-08-19T07:35:31.325Z,303.75
2018-08-19T07:36:31.321Z,303.75
2018-08-19T07:38:24.261Z,298.13
2018-08-19T07:39:24.278Z,298.13
2018-08-19T07:41:17.236Z,298.13
2018-08-19T07:42:17.240Z,292.50
2018-08-19T07:44:10.195Z,286.88
2018-08-19T07:45:10.203Z,286.88
2018-08-19T07:47:03.133Z,286.88
2018-08-19T07:48:03.153Z,281.25
2018-08-19T07:49:56.112Z,281.25
2018-08-19T07:50:56.115Z,281.25
2018-08-19T07:52:49.055Z,281.25
2018-08-19T07:53:49.071Z,258.75
2018-08-19T07:55:42.025Z,281.25
2018-08-19T07:56:42.030Z,275.63
2018-08-19T07:58:34.966Z,275.63
2018-08-19T07:59:34.986Z,264.38
2018-08-19T08:01:28.523Z,191.25
2018-08-19T08:02:28.437Z,146.25
2018-08-19T08:04:21.404Z,185.63
2018-08-19T08:05:21.394Z,180.00
2018-08-19T08:07:14.346Z,180.00
2018-08-19T08:08:14.365Z,185.63
2018-08-19T08:10:07.308Z,185.63
2018-08-19T08:11:07.306Z,180.00
2018-08-19T08:13:00.254Z,185.63
2018-08-19T08:14:00.276Z,180.00
2018-08-19T08:15:53.227Z,185.63
2018-08-19T08:16:53.224Z,185.63
2018-08-19T08:18:46.159Z,191.25
2018-08-19T08:19:46.175Z,191.25
2018-08-19T08:21:39.344Z,185.63
2018-08-19T08:22:39.138Z,185.63
2018-08-19T08:24:32.073Z,185.63
2018-08-19T08:25:32.097Z,180.00
2018-08-19T08:27:25.048Z,185.63
2018-08-19T08:28:25.051Z,185.63
2018-08-19T08:30:18.012Z,191.25
2018-08-19T08:31:18.002Z,191.25
2018-08-19T08:33:10.935Z,208.13
2018-08-19T08:34:10.976Z,225.00
2018-08-19T08:36:03.912Z,208.13
2018-08-19T08:37:03.906Z,129.38
2018-08-19T08:38:56.854Z,196.88
2018-08-19T08:39:56.860Z,202.50
2018-08-19T08:41:49.823Z,225.00
2018-08-19T08:42:49.822Z,236.25
2018-08-19T08:44:42.769Z,208.13
2018-08-19T08:45:42.786Z,241.88
2018-08-19T08:47:35.809Z,253.13
2018-08-19T08:48:35.736Z,264.38
2018-08-19T08:50:28.697Z,180.00
2018-08-19T08:51:28.693Z,163.13
2018-08-19T08:53:21.675Z,202.50
2018-08-19T08:54:21.645Z,196.88
2018-08-19T08:56:14.626Z,196.88
2018-08-19T08:57:14.602Z,230.63
2018-08-19T08:59:07.529Z,247.50
2018-08-19T09:00:07.548Z,185.63
2018-08-19T09:02:00.506Z,174.38
2018-08-19T09:03:00.505Z,185.63
2018-08-19T09:04:53.439Z,174.38
2018-08-19T09:05:53.461Z,168.75
2018-08-19T09:07:46.413Z,157.50
2018-08-19T09:08:46.416Z,163.13
2018-08-19T09:10:39.348Z,163.13
2018-08-19T09:11:39.365Z,163.13
2018-08-19T09:13:32.333Z,236.25
2018-08-19T09:14:32.316Z,163.13
2018-08-19T09:16:25.270Z,174.38
2018-08-19T09:17:25.272Z,157.50
2018-08-19T09:19:18.215Z,157.50
2018-08-19T09:20:18.225Z,151.88
2018-08-19T09:22:11.172Z,146.25
2018-08-19T09:23:11.306Z,146.25
2018-08-19T09:25:04.104Z,146.25
2018-08-19T09:26:04.131Z,151.88
2018-08-19T09:27:57.103Z,151.88
2018-08-19T09:28:57.089Z,146.25
2018-08-19T09:30:50.014Z,157.50
2018-08-19T09:31:50.037Z,157.50
2018-08-19T09:33:42.991Z,163.13
2018-08-19T09:34:42.991Z,163.13
2018-08-19T09:36:35.944Z,168.75
2018-08-19T09:37:35.945Z,174.38
2018-08-19T09:39:28.904Z,174.38
2018-08-19T09:40:28.924Z,180.00
2018-08-19T09:42:21.876Z,174.38
2018-08-19T09:43:21.876Z,185.63
2018-08-19T09:45:14.812Z,213.75
2018-08-19T09:46:14.831Z,202.50
2018-08-19T09:48:07.787Z,196.88
2018-08-19T09:49:07.784Z,258.75
2018-08-19T09:51:00.720Z,208.13
2018-08-19T09:52:00.738Z,185.63
2018-08-19T09:53:53.697Z,163.13
2018-08-19T09:54:53.691Z,168.75
2018-08-19T09:56:46.648Z,202.50
2018-08-19T09:57:46.646Z,180.00
2018-08-19T09:59:39.582Z,180.00
2018-08-19T10:00:39.606Z,191.25
2018-08-19T10:02:32.557Z,196.88
2018-08-19T10:03:32.559Z,196.88
2018-08-19T10:05:25.490Z,208.13
2018-08-19T10:06:25.511Z,202.50
2018-08-19T10:08:18.467Z,202.50
2018-08-19T10:09:18.466Z,196.88
2018-08-19T10:11:11.403Z,253.13
2018-08-19T10:12:11.424Z,208.13
2018-08-19T10:14:04.376Z,264.38
2018-08-19T10:15:04.373Z,236.25
2018-08-19T10:16:57.332Z,298.13
2018-08-19T10:17:57.331Z,298.13
2018-08-19T10:19:50.287Z,281.25
2018-08-19T10:20:50.315Z,213.75
2018-08-19T10:22:43.268Z,185.63
2018-08-19T10:23:43.260Z,185.63
2018-08-19T10:25:36.203Z,196.88
2018-08-19T10:26:36.278Z,202.50
2018-08-19T10:28:29.172Z,213.75
2018-08-19T10:29:29.177Z,213.75
2018-08-19T10:31:22.195Z,202.50
2018-08-19T10:32:22.154Z,191.25
2018-08-19T10:34:15.109Z,258.75
2018-08-19T10:35:15.113Z,168.75
2018-08-19T10:37:08.066Z,225.00
2018-08-19T10:38:08.065Z,281.25
2018-08-19T10:40:01.000Z,219.38
2018-08-19T10:41:01.018Z,191.25
2018-08-19T10:42:53.976Z,258.75
2018-08-19T10:43:53.978Z,157.50
2018-08-19T10:45:46.908Z,174.38
2018-08-19T10:46:46.930Z,157.50
2018-08-19T10:48:39.881Z,163.13
2018-08-19T10:49:39.887Z,151.88
2018-08-19T10:51:32.816Z,151.88
2018-08-19T10:52:32.835Z,168.75
2018-08-19T10:54:25.793Z,281.25
2018-08-19T10:55:25.789Z,270.00
2018-08-19T10:57:18.726Z,180.00
2018-08-19T10:58:18.794Z,236.25
2018-08-19T11:00:11.709Z,230.63
2018-08-19T11:01:11.703Z,140.63
2018-08-19T11:03:04.660Z,140.63
2018-08-19T11:04:04.659Z,146.25
2018-08-19T11:05:57.596Z,140.63
2018-08-19T11:06:57.616Z,146.25
2018-08-19T11:08:50.637Z,185.63
2018-08-19T11:09:50.604Z,163.13
2018-08-19T11:11:43.612Z,140.63
2018-08-19T11:12:43.616Z,129.38
2018-08-19T11:14:36.627Z,129.38
2018-08-19T11:15:36.625Z,123.75
2018-08-19T11:17:29.564Z,118.13
2018-08-19T11:18:29.583Z,123.75
2018-08-19T11:20:22.535Z,129.38
2018-08-19T11:21:22.542Z,146.25
2018-08-19T11:23:15.500Z,146.25
2018-08-19T11:24:15.489Z,213.75
2018-08-19T11:26:08.532Z,135.00
2018-08-19T11:27:08.528Z,174.38
2018-08-19T11:29:01.483Z,140.63
2018-08-19T11:30:01.480Z,151.88
2018-08-19T11:31:54.420Z,135.00
2018-08-19T11:32:54.438Z,123.75
2018-08-19T11:34:47.396Z,151.88
2018-08-19T11:35:47.391Z,213.75
2018-08-19T11:37:40.331Z,180.00
2018-08-19T11:38:40.348Z,241.88
2018-08-19T11:40:33.303Z,208.13
2018-08-19T11:41:33.300Z,163.13
2018-08-19T11:43:26.298Z,225.00
2018-08-19T11:44:26.251Z,213.75
2018-08-19T11:46:19.210Z,202.50
2018-08-19T11:47:19.206Z,196.88
2018-08-19T11:49:12.166Z,191.25
2018-08-19T11:50:12.159Z,191.25
2018-08-19T11:52:05.101Z,191.25
2018-08-19T11:53:05.128Z,185.63
2018-08-19T11:54:58.570Z,191.25
2018-08-19T11:55:58.573Z,191.25
2018-08-19T11:57:51.525Z,95.63
2018-08-19T11:58:51.540Z,191.25
2018-08-19T12:00:44.497Z,118.13
2018-08-19T12:01:44.494Z,191.25
2018-08-19T12:03:37.428Z,135.00
2018-08-19T12:04:37.456Z,129.38
2018-08-19T12:06:30.410Z,185.63
2018-08-19T12:07:30.403Z,185.63
2018-08-19T12:09:23.336Z,196.88
2018-08-19T12:10:23.363Z,163.13
2018-08-19T12:12:16.327Z,191.25
2018-08-19T12:13:16.321Z,185.63
2018-08-19T12:15:09.272Z,191.25
2018-08-19T12:16:09.278Z,180.00
2018-08-19T12:18:02.210Z,180.00
2018-08-19T12:19:02.230Z,180.00
2018-08-19T12:20:55.192Z,180.00
2018-08-19T12:21:55.186Z,185.63
2018-08-19T12:23:48.135Z,185.63
2018-08-19T12:24:48.139Z,180.00
2018-08-19T12:26:41.095Z,180.00
2018-08-19T12:27:41.190Z,185.63
2018-08-19T12:29:34.034Z,191.25
2018-08-19T12:30:34.052Z,191.25
2018-08-19T12:32:27.007Z,191.25
2018-08-19T12:33:27.029Z,191.25
2018-08-19T12:35:19.980Z,180.00
2018-08-19T12:36:19.967Z,180.00
2018-08-19T12:38:12.907Z,151.88
2018-08-19T12:39:12.922Z,174.38
2018-08-19T12:41:05.880Z,180.00
2018-08-19T12:42:05.881Z,180.00
2018-08-19T12:43:58.813Z,174.38
2018-08-19T12:44:58.833Z,174.38
2018-08-19T12:46:51.790Z,180.00
2018-08-19T12:47:51.790Z,174.38
2018-08-19T12:49:44.728Z,174.38
2018-08-19T12:50:44.746Z,174.38
2018-08-19T12:52:37.699Z,174.38
2018-08-19T12:53:37.701Z,174.38
2018-08-19T12:55:30.654Z,174.38
2018-08-19T12:56:30.659Z,174.38
2018-08-19T12:58:23.615Z,168.75
2018-08-19T12:59:23.616Z,174.38
2018-08-19T13:01:16.575Z,168.75
2018-08-19T13:02:16.579Z,174.38
2018-08-19T13:04:09.515Z,168.75
2018-08-19T13:05:09.533Z,168.75
2018-08-19T13:07:02.488Z,168.75
2018-08-19T13:08:02.526Z,168.75
2018-08-19T13:09:55.429Z,168.75
2018-08-19T13:10:55.456Z,168.75
2018-08-19T13:12:48.405Z,168.75
2018-08-19T13:13:48.405Z,168.75
2018-08-19T13:15:41.338Z,163.13
2018-08-19T13:16:41.358Z,168.75
2018-08-19T13:18:34.322Z,163.13
2018-08-19T13:19:34.315Z,163.13
2018-08-19T13:21:27.275Z,163.13
2018-08-19T13:22:27.276Z,163.13
2018-08-19T13:24:20.215Z,163.13
2018-08-19T13:25:20.229Z,163.13
2018-08-19T13:27:13.197Z,157.50
2018-08-19T13:28:13.184Z,157.50
2018-08-19T13:30:06.124Z,157.50
2018-08-19T13:31:06.146Z,157.50
2018-08-19T13:32:59.108Z,163.13
2018-08-19T13:33:59.096Z,163.13
2018-08-19T13:35:52.047Z,157.50
2018-08-19T13:36:52.056Z,157.50
2018-08-19T13:38:45.027Z,157.50
2018-08-19T13:39:45.027Z,157.50
2018-08-19T13:41:37.962Z,157.50
2018-08-19T13:42:37.983Z,157.50
2018-08-19T13:44:30.942Z,157.50
2018-08-19T13:45:31.004Z,157.50
2018-08-19T13:47:23.879Z,151.88
2018-08-19T13:48:23.896Z,151.88
2018-08-19T13:50:16.853Z,151.88
2018-08-19T13:51:16.852Z,151.88
2018-08-19T13:53:09.792Z,151.88
2018-08-19T13:54:09.814Z,151.88
2018-08-19T13:56:02.770Z,151.88
2018-08-19T13:57:02.827Z,146.25
2018-08-19T13:58:55.934Z,146.25
2018-08-19T13:59:55.740Z,146.25
2018-08-19T14:01:48.669Z,146.25
2018-08-19T14:02:48.689Z,146.25
2018-08-19T14:04:41.646Z,146.25
2018-08-19T14:05:41.641Z,146.25
2018-08-19T14:07:34.575Z,140.63
2018-08-19T14:08:34.598Z,140.63
2018-08-19T14:10:27.563Z,140.63
2018-08-19T14:11:27.555Z,140.63
2018-08-19T14:13:20.498Z,140.63
2018-08-19T14:14:20.517Z,140.63
2018-08-19T14:16:13.472Z,140.63
2018-08-19T14:17:13.470Z,135.00
2018-08-19T14:19:06.409Z,140.63
2018-08-19T14:20:06.429Z,140.63
2018-08-19T14:21:59.397Z,135.00
2018-08-19T14:22:59.388Z,135.00
2018-08-19T14:24:52.337Z,135.00
2018-08-19T14:25:52.345Z,135.00
2018-08-19T14:27:45.275Z,135.00
2018-08-19T14:28:45.298Z,135.00
2018-08-19T14:30:38.347Z,135.00
2018-08-19T14:31:38.259Z,135.00
2018-08-19T14:33:31.194Z,135.00
2018-08-19T14:34:31.214Z,135.00
2018-08-19T14:36:24.176Z,135.00
2018-08-19T14:37:24.180Z,129.38
2018-08-19T14:39:17.109Z,129.38
2018-08-19T14:40:17.288Z,129.38
2018-08-19T14:42:10.101Z,129.38
2018-08-19T14:43:10.100Z,129.38
2018-08-19T14:45:03.071Z,123.75
2018-08-19T14:46:03.105Z,123.75
2018-08-19T14:47:56.003Z,123.75
2018-08-19T14:48:56.015Z,123.75
2018-08-19T14:50:48.976Z,123.75
2018-08-19T14:51:48.972Z,123.75
2018-08-19T14:53:41.911Z,123.75
2018-08-19T14:54:41.928Z,123.75
2018-08-19T14:56:34.883Z,118.13
2018-08-19T14:57:34.889Z,118.13
2018-08-19T14:59:27.828Z,118.13
2018-08-19T15:00:27.838Z,118.13
2018-08-19T15:02:20.800Z,123.75
2018-08-19T15:03:20.801Z,118.13
2018-08-19T15:05:13.736Z,118.13
2018-08-19T15:06:13.756Z,118.13
2018-08-19T15:08:06.721Z,118.13
2018-08-19T15:09:06.715Z,118.13
2018-08-19T15:10:59.652Z,118.13
2018-08-19T15:11:59.667Z,118.13
2018-08-19T15:13:52.624Z,118.13
2018-08-19T15:14:52.623Z,118.13
2018-08-19T15:16:45.580Z,118.13
2018-08-19T15:17:45.575Z,118.13
2018-08-19T15:19:38.592Z,112.50
2018-08-19T15:20:38.536Z,112.50
2018-08-19T15:22:31.501Z,112.50
2018-08-19T15:23:31.499Z,112.50
2018-08-19T15:25:24.431Z,112.50
2018-08-19T15:26:24.448Z,112.50
2018-08-19T15:28:17.409Z,112.50
2018-08-19T15:29:17.400Z,106.88
2018-08-19T15:31:10.348Z,106.88
2018-08-19T15:32:10.601Z,106.88
2018-08-19T15:34:03.328Z,106.88
2018-08-19T15:35:03.324Z,101.25
2018-08-19T15:36:56.285Z,101.25
2018-08-19T15:37:56.283Z,101.25
2018-08-19T15:39:49.219Z,101.25
2018-08-19T15:40:49.257Z,101.25
2018-08-19T15:42:42.196Z,95.63
2018-08-19T15:43:42.193Z,101.25
2018-08-19T15:45:35.124Z,95.63
2018-08-19T15:46:35.147Z,95.63
2018-08-19T15:48:28.112Z,95.63
2018-08-19T15:49:28.102Z,95.63
2018-08-19T15:51:21.041Z,90.00
2018-08-19T15:52:21.052Z,90.00
2018-08-19T15:54:14.029Z,90.00
2018-08-19T15:55:14.018Z,90.00
2018-08-19T15:57:06.951Z,95.63
2018-08-19T15:58:06.968Z,95.63
2018-08-19T15:59:59.935Z,90.00
2018-08-19T16:00:59.929Z,90.00
2018-08-19T16:02:52.890Z,90.00
2018-08-19T16:03:52.882Z,90.00
2018-08-19T16:05:45.823Z,84.38
2018-08-19T16:06:45.881Z,84.38
2018-08-19T16:08:38.791Z,84.38
2018-08-19T16:09:38.792Z,84.38
2018-08-19T16:11:31.731Z,84.38
2018-08-19T16:12:31.774Z,84.38
2018-08-19T16:14:24.722Z,78.75
2018-08-19T16:15:24.704Z,78.75
2018-08-19T16:17:17.646Z,78.75
2018-08-19T16:18:17.662Z,73.13
2018-08-19T16:20:10.633Z,73.13
2018-08-19T16:21:10.626Z,73.13
2018-08-19T16:23:03.572Z,73.13
2018-08-19T16:24:03.576Z,67.50
2018-08-19T16:25:56.522Z,67.50
2018-08-19T16:26:56.527Z,67.50
2018-08-19T16:28:49.486Z,67.50
2018-08-19T16:29:49.480Z,67.50
2018-08-19T16:31:42.485Z,67.50
2018-08-19T16:32:42.443Z,67.50
2018-08-19T16:34:35.405Z,67.50
2018-08-19T16:35:35.401Z,67.50
2018-08-19T16:37:28.410Z,61.88
2018-08-19T16:38:28.361Z,61.88
2018-08-19T16:40:21.345Z,61.88
2018-08-19T16:41:21.309Z,61.88
2018-08-19T16:43:14.271Z,61.88
2018-08-19T16:44:14.276Z,61.88
2018-08-19T16:46:07.216Z,56.25
2018-08-19T16:47:07.237Z,56.25
2018-08-19T16:49:00.183Z,56.25
2018-08-19T16:50:00.239Z,56.25
2018-08-19T16:51:53.128Z,56.25
2018-08-19T16:52:53.146Z,50.63
2018-08-19T16:54:46.105Z,50.63
2018-08-19T16:55:46.094Z,50.63
2018-08-19T16:57:39.040Z,50.63
2018-08-19T16:58:39.059Z,50.63
2018-08-19T17:00:32.016Z,50.63
2018-08-19T17:01:32.013Z,45.00
2018-08-19T17:03:24.967Z,45.00
2018-08-19T17:04:24.964Z,45.00
2018-08-19T17:06:17.901Z,45.00
2018-08-19T17:07:17.920Z,45.00
2018-08-19T17:09:10.876Z,45.00
2018-08-19T17:10:10.978Z,45.00
2018-08-19T17:12:03.817Z,45.00
2018-08-19T17:13:03.826Z,45.00
2018-08-19T17:14:56.787Z,45.00
2018-08-19T17:15:56.808Z,45.00
2018-08-19T17:17:49.748Z,45.00
2018-08-19T17:18:49.743Z,45.00
2018-08-19T17:20:42.699Z,45.00
2018-08-19T17:21:42.696Z,39.38
2018-08-19T17:23:35.639Z,39.38
2018-08-19T17:24:35.656Z,39.38
2018-08-19T17:26:28.685Z,39.38
2018-08-19T17:27:28.610Z,39.38
2018-08-19T17:29:21.544Z,39.38
2018-08-19T17:30:21.565Z,39.38
2018-08-19T17:32:14.525Z,33.75
2018-08-19T17:33:14.593Z,33.75
2018-08-19T17:35:07.480Z,33.75
2018-08-19T17:36:07.480Z,33.75
2018-08-19T17:38:00.438Z,33.75
2018-08-19T17:39:00.478Z,33.75
2018-08-19T17:40:53.397Z,33.75
2018-08-19T17:41:53.395Z,33.75
2018-08-19T17:43:46.328Z,33.75
2018-08-19T17:44:46.348Z,33.75
2018-08-19T17:46:39.306Z,28.13
2018-08-19T17:47:39.307Z,28.13
2018-08-19T17:49:32.242Z,28.13
2018-08-19T17:50:32.259Z,28.13
2018-08-19T17:52:25.207Z,28.13
2018-08-19T17:53:25.213Z,28.13
2018-08-19T17:55:18.144Z,28.13
2018-08-19T17:56:18.160Z,28.13
2018-08-19T17:58:11.120Z,22.50
2018-08-19T17:59:11.122Z,22.50
2018-08-19T18:01:04.071Z,22.50
2018-08-19T18:02:04.068Z,22.50
2018-08-19T18:03:57.008Z,22.50
2018-08-19T18:04:57.029Z,22.50
2018-08-19T18:06:49.976Z,22.50
2018-08-19T18:07:49.975Z,16.88
2018-08-19T18:09:42.911Z,16.88
2018-08-19T18:10:43.018Z,16.88
2018-08-19T18:12:35.873Z,16.88
2018-08-19T18:13:35.878Z,16.88
2018-08-19T18:15:28.809Z,11.25
2018-08-19T18:16:28.832Z,11.25
2018-08-19T18:18:21.800Z,11.25
2018-08-19T18:19:21.796Z,11.25
2018-08-19T18:21:14.747Z,11.25
2018-08-19T18:22:14.753Z,11.25
2018-08-19T18:24:07.681Z,11.25
2018-08-19T18:25:07.717Z,11.25
2018-08-19T18:27:00.654Z,5.63
2018-08-19T18:28:00.651Z,5.63
2018-08-19T18:29:53.586Z,5.63
2018-08-19T18:30:53.651Z,5.63
2018-08-19T18:32:46.569Z,5.63
2018-08-19T18:33:46.556Z,5.63
2018-08-19T18:35:39.493Z,5.63
2018-08-19T18:36:39.509Z,5.63
2018-08-19T18:38:32.468Z,5.63
2018-08-19T18:39:32.464Z,5.63
2018-08-19T18:41:25.483Z,0.00
2018-08-19T18:42:25.417Z,0.00
2018-08-19T18:44:18.375Z,0.00
2018-08-19T18:45:18.396Z,0.00
2018-08-19T18:47:11.348Z,0.00
2018-08-19T18:48:11.352Z,0.00
2018-08-19T18:50:04.281Z,0.00
2018-08-19T18:51:04.293Z,0.00
2018-08-19T18:52:57.251Z,0.00